Time;durP1;ratioP1;P1;durP2;ratioP2;P2;SDS_P1;SDS_P2;PMS_P1;PMS_P2;Temp;Humidity;BMP_temperature;BMP_pressure;BME280_temperature;BME280_humidity;BME280_pressure;Samples;Min_cycle;Max_cycle;Signal;HPM_P1;HPM_P2
2021/12/02 00:00:12;;;;;;;22.75;7.05;;;;;;;;;;5032999;28;21024;-60
2021/12/02 00:02:38;;;;;;;16.65;4.38;;;;;;;;;;5034135;28;20029;-60
2021/12/02 00:05:04;;;;;;;12.60;4.63;;;;;;;;;;5033113;28;20032;-59
2021/12/02 00:07:29;;;;;;;15.30;5.80;;;;;;;;;;5034311;28;20375;-59
2021/12/02 00:09:55;;;;;;;16.90;3.88;;;;;;;;;;5048580;28;20045;-60
2021/12/02 00:12:20;;;;;;;15.93;4.35;;;;;;;;;;5054310;28;20016;-60
2021/12/02 00:14:47;;;;;;;23.08;6.85;;;;;;;;;;5052714;28;20102;-60
2021/12/02 00:17:38;;;;;;;25.15;5.95;;;;;;;;;;5053810;28;20388;-60
2021/12/02 00:22:47;;;;;;;24.38;8.23;;;;;;;;;;5054412;28;20533;-59
2021/12/02 00:25:13;;;;;;;19.20;4.80;;;;;;;;;;5034185;28;20072;-59
2021/12/02 00:27:38;;;;;;;13.63;3.72;;;;;;;;;;5034478;28;20440;-60
2021/12/02 00:30:04;;;;;;;11.45;4.13;;;;;;;;;;5033221;28;20033;-60
2021/12/02 00:32:30;;;;;;;26.63;8.10;;;;;;;;;;5034124;28;20024;-60
2021/12/02 00:34:55;;;;;;;10.80;5.60;;;;;;;;;;5033355;28;20515;-60
2021/12/02 00:37:21;;;;;;;15.00;4.20;;;;;;;;;;5034274;28;20440;-60
2021/12/02 00:39:47;;;;;;;31.60;6.70;;;;;;;;;;5032704;28;20021;-60
2021/12/02 00:42:13;;;;;;;17.90;6.57;;;;;;;;;;5033752;28;20026;-60
2021/12/02 00:44:38;;;;;;;12.07;6.20;;;;;;;;;;5048637;28;20515;-60
2021/12/02 00:47:04;;;;;;;13.10;5.80;;;;;;;;;;5053631;28;20017;-60
2021/12/02 00:49:29;;;;;;;10.65;4.78;;;;;;;;;;5052441;28;20856;-60
2021/12/02 00:51:56;;;;;;;23.05;5.50;;;;;;;;;;5054230;28;20024;-60
2021/12/02 00:54:22;;;;;;;12.63;4.80;;;;;;;;;;5051942;28;20017;-60
2021/12/02 00:56:47;;;;;;;9.75;5.55;;;;;;;;;;5054136;28;20486;-60
2021/12/02 00:59:12;;;;;;;17.25;5.80;;;;;;;;;;5052458;28;20434;-60
2021/12/02 01:01:38;;;;;;;15.70;4.73;;;;;;;;;;5053202;28;20017;-61
2021/12/02 01:04:11;;;;;;;19.63;5.40;;;;;;;;;;5053530;28;20461;-61
2021/12/02 01:06:36;;;;;;;20.95;5.13;;;;;;;;;;5052270;28;20098;-61
2021/12/02 01:09:04;;;;;;;20.02;6.13;;;;;;;;;;5053690;28;20021;-61
2021/12/02 01:11:29;;;;;;;22.98;5.50;;;;;;;;;;5051774;28;20067;-61
2021/12/02 01:13:54;;;;;;;27.10;5.15;;;;;;;;;;5044025;28;20049;-61
2021/12/02 01:16:20;;;;;;;12.20;5.78;;;;;;;;;;5031602;28;20500;-61
2021/12/02 01:18:45;;;;;;;13.45;3.70;;;;;;;;;;5033725;28;20387;-61
2021/12/02 01:21:19;;;;;;;19.42;4.78;;;;;;;;;;5031602;28;20037;-61
2021/12/02 01:23:44;;;;;;;14.55;3.70;;;;;;;;;;5033329;28;20026;-61
2021/12/02 01:26:10;;;;;;;17.17;4.95;;;;;;;;;;5032002;28;20511;-61
2021/12/02 01:28:36;;;;;;;16.55;5.45;;;;;;;;;;5033486;28;20127;-61
2021/12/02 01:31:02;;;;;;;19.33;5.75;;;;;;;;;;5031739;28;20045;-61
2021/12/02 01:33:27;;;;;;;16.73;4.50;;;;;;;;;;5041237;28;20476;-61
2021/12/02 01:36:00;;;;;;;26.27;7.50;;;;;;;;;;5051570;28;20064;-61
2021/12/02 01:38:26;;;;;;;15.52;4.72;;;;;;;;;;5052567;28;20500;-61
2021/12/02 01:40:54;;;;;;;9.18;3.90;;;;;;;;;;5051566;28;20040;-61
2021/12/02 01:43:20;;;;;;;17.75;5.93;;;;;;;;;;5052477;28;20095;-61
2021/12/02 01:45:46;;;;;;;7.20;4.25;;;;;;;;;;5051282;28;20040;-60
2021/12/02 01:48:15;;;;;;;13.52;5.10;;;;;;;;;;5052833;28;20067;-60
2021/12/02 01:50:42;;;;;;;15.63;5.30;;;;;;;;;;5051362;28;20136;-60
2021/12/02 01:53:09;;;;;;;27.60;5.47;;;;;;;;;;5052725;28;20020;-60
2021/12/02 01:55:35;;;;;;;17.90;4.95;;;;;;;;;;5050759;28;20036;-60
2021/12/02 01:58:01;;;;;;;14.52;3.17;;;;;;;;;;5052680;28;20025;-60
2021/12/02 02:00:28;;;;;;;31.05;7.70;;;;;;;;;;5050608;28;20056;-60
2021/12/02 02:02:53;;;;;;;16.30;4.55;;;;;;;;;;5052274;28;20020;-59
2021/12/02 02:05:19;;;;;;;11.13;3.73;;;;;;;;;;5050957;28;20103;-59
2021/12/02 02:07:52;;;;;;;15.30;3.78;;;;;;;;;;5052224;28;20799;-59
2021/12/02 02:10:17;;;;;;;12.15;4.40;;;;;;;;;;5049081;28;20467;-60
2021/12/02 02:12:42;;;;;;;13.27;4.45;;;;;;;;;;5052488;28;20045;-60
2021/12/02 02:15:08;;;;;;;16.20;4.63;;;;;;;;;;5050679;28;20492;-60
2021/12/02 02:17:42;;;;;;;12.50;4.03;;;;;;;;;;5051884;28;20029;-60
2021/12/02 02:20:10;;;;;;;12.77;4.35;;;;;;;;;;5051109;28;20119;-59
2021/12/02 02:22:35;;;;;;;24.45;4.90;;;;;;;;;;5051997;28;20025;-59
2021/12/02 02:25:01;;;;;;;18.15;3.88;;;;;;;;;;5051030;28;20466;-59
2021/12/02 02:27:26;;;;;;;12.43;4.15;;;;;;;;;;5050944;28;20033;-59
2021/12/02 02:29:51;;;;;;;16.13;4.40;;;;;;;;;;5030481;28;20029;-59
2021/12/02 02:32:17;;;;;;;21.37;5.77;;;;;;;;;;5032286;28;20435;-59
2021/12/02 02:34:43;;;;;;;14.10;4.72;;;;;;;;;;5030838;28;20474;-59
2021/12/02 02:37:08;;;;;;;10.82;4.18;;;;;;;;;;5032120;28;20021;-59
2021/12/02 02:39:35;;;;;;;8.93;3.63;;;;;;;;;;5030371;28;20403;-59
2021/12/02 02:42:02;;;;;;;9.10;3.22;;;;;;;;;;5032222;28;20436;-59
2021/12/02 02:44:28;;;;;;;4.70;3.53;;;;;;;;;;5047198;28;20423;-59
2021/12/02 02:46:54;;;;;;;14.18;4.72;;;;;;;;;;5051929;28;20096;-60
2021/12/02 02:49:19;;;;;;;8.07;2.53;;;;;;;;;;5038846;28;20543;-59
2021/12/02 02:51:45;;;;;;;6.95;3.80;;;;;;;;;;5031721;28;20071;-59
2021/12/02 02:54:12;;;;;;;10.32;3.65;;;;;;;;;;5029990;28;20111;-59
2021/12/02 02:56:46;;;;;;;7.60;3.17;;;;;;;;;;5031928;28;20389;-59
2021/12/02 03:02:00;;;;;;;10.73;2.72;;;;;;;;;;5031868;28;20104;-59
2021/12/02 03:07:06;;;;;;;9.52;4.03;;;;;;;;;;5031476;28;20104;-59
2021/12/02 03:12:25;;;;;;;7.28;3.20;;;;;;;;;;5051729;28;20040;-59
2021/12/02 03:16:37;;;;;;;10.88;3.60;;;;;;;;;;5049364;28;20496;-59
2021/12/02 03:17:38;;;;;;;11.70;4.47;;;;;;;;;;5051215;28;20373;-58
2021/12/02 03:20:04;;;;;;;4.10;2.78;;;;;;;;;;5049916;28;20029;-58
2021/12/02 03:22:30;;;;;;;8.65;3.17;;;;;;;;;;5050507;28;20020;-58
2021/12/02 03:24:55;;;;;;;12.30;2.67;;;;;;;;;;5049804;28;20033;-58
2021/12/02 03:27:20;;;;;;;7.60;3.73;;;;;;;;;;5050893;28;20112;-58
2021/12/02 03:29:45;;;;;;;3.65;2.42;;;;;;;;;;5048052;28;20456;-58
2021/12/02 03:32:11;;;;;;;13.10;3.42;;;;;;;;;;5050909;28;20052;-58
2021/12/02 03:34:36;;;;;;;8.43;2.17;;;;;;;;;;5049766;28;20056;-59
2021/12/02 03:37:02;;;;;;;17.52;2.50;;;;;;;;;;5050588;28;20091;-59
2021/12/02 03:39:27;;;;;;;7.82;2.92;;;;;;;;;;5029718;28;20021;-58
2021/12/02 03:41:53;;;;;;;9.80;3.03;;;;;;;;;;5031075;28;20067;-59
2021/12/02 03:44:19;;;;;;;4.55;3.17;;;;;;;;;;5029247;28;20021;-57
2021/12/02 03:46:44;;;;;;;3.00;2.47;;;;;;;;;;5030950;28;20021;-58
2021/12/02 03:49:10;;;;;;;5.55;2.53;;;;;;;;;;5029609;28;20033;-56
2021/12/02 03:51:35;;;;;;;5.18;2.78;;;;;;;;;;5030551;28;20495;-59
2021/12/02 03:54:01;;;;;;;6.63;2.88;;;;;;;;;;5031001;28;20017;-58
2021/12/02 03:56:26;;;;;;;8.32;4.30;;;;;;;;;;5029128;28;20549;-58
2021/12/02 03:58:52;;;;;;;6.75;3.35;;;;;;;;;;5030606;28;20021;-57
2021/12/02 04:01:17;;;;;;;3.47;2.88;;;;;;;;;;5029139;28;20052;-57
2021/12/02 04:03:43;;;;;;;5.45;2.40;;;;;;;;;;5031037;28;20024;-57
2021/12/02 04:06:09;;;;;;;7.63;3.60;;;;;;;;;;5029043;28;20124;-58
2021/12/02 04:08:51;;;;;;;6.57;2.47;;;;;;;;;;5030947;28;20092;-58
2021/12/02 04:16:37;;;;;;;4.93;2.20;;;;;;;;;;5029116;28;20471;-59
2021/12/02 04:19:03;;;;;;;4.72;2.85;;;;;;;;;;5031026;28;20014;-59
2021/12/02 04:21:29;;;;;;;11.20;3.65;;;;;;;;;;5028530;28;20037;-59
2021/12/02 04:23:54;;;;;;;10.15;2.45;;;;;;;;;;5030934;28;20041;-59
2021/12/02 04:26:19;;;;;;;4.93;2.33;;;;;;;;;;5029030;28;20091;-59
2021/12/02 04:28:44;;;;;;;20.38;4.43;;;;;;;;;;5041929;28;21029;-57
2021/12/02 04:31:10;;;;;;;4.47;2.50;;;;;;;;;;5049082;28;20037;-58
2021/12/02 04:33:35;;;;;;;10.90;2.93;;;;;;;;;;5050289;28;20438;-58
2021/12/02 04:36:00;;;;;;;6.67;2.17;;;;;;;;;;5048646;28;20478;-58
2021/12/02 04:38:28;;;;;;;5.80;3.30;;;;;;;;;;5037288;28;20498;-58
2021/12/02 04:40:54;;;;;;;7.43;3.97;;;;;;;;;;5030832;28;20099;-59
2021/12/02 04:43:19;;;;;;;2.22;2.08;;;;;;;;;;5033845;28;20014;-59
2021/12/02 04:45:44;;;;;;;3.47;3.13;;;;;;;;;;5032928;28;20061;-59
2021/12/02 04:48:09;;;;;;;7.53;2.70;;;;;;;;;;5034149;28;20416;-60
2021/12/02 04:50:34;;;;;;;2.93;2.27;;;;;;;;;;5032194;28;20547;-60
2021/12/02 04:52:59;;;;;;;2.27;2.10;;;;;;;;;;5034173;28;20771;-59
2021/12/02 04:55:25;;;;;;;4.17;3.37;;;;;;;;;;5032198;28;20471;-60
2021/12/02 04:57:50;;;;;;;3.65;2.45;;;;;;;;;;5038820;28;20795;-59
2021/12/02 05:00:16;;;;;;;8.93;3.10;;;;;;;;;;5033845;28;20450;-59
2021/12/02 05:02:41;;;;;;;4.45;2.58;;;;;;;;;;5033556;28;20083;-59
2021/12/02 05:05:10;;;;;;;3.55;2.90;;;;;;;;;;5035698;28;20044;-59
2021/12/02 05:07:35;;;;;;;2.90;2.70;;;;;;;;;;5033574;28;20040;-59
2021/12/02 05:10:00;;;;;;;2.50;2.30;;;;;;;;;;5032454;28;20029;-59
2021/12/02 05:12:26;;;;;;;4.45;2.58;;;;;;;;;;5033056;28;20026;-59
2021/12/02 05:14:51;;;;;;;7.38;2.90;;;;;;;;;;5031985;28;20715;-59
2021/12/02 05:17:16;;;;;;;8.35;3.83;;;;;;;;;;5035117;28;20022;-60
2021/12/02 05:19:42;;;;;;;7.20;3.00;;;;;;;;;;5043518;28;20399;-59
2021/12/02 05:22:08;;;;;;;4.43;3.30;;;;;;;;;;5053354;28;20478;-59
2021/12/02 05:24:33;;;;;;;11.40;3.92;;;;;;;;;;5051846;28;20448;-59
2021/12/02 05:26:58;;;;;;;3.83;2.90;;;;;;;;;;5052893;28;20017;-59
2021/12/02 05:29:23;;;;;;;8.23;3.83;;;;;;;;;;5051744;28;20481;-59
2021/12/02 05:31:48;;;;;;;3.35;2.70;;;;;;;;;;5053115;28;20518;-59
2021/12/02 05:34:14;;;;;;;3.27;3.07;;;;;;;;;;5051175;28;20009;-59
2021/12/02 05:36:39;;;;;;;9.00;3.20;;;;;;;;;;5052986;28;20447;-59
2021/12/02 05:39:04;;;;;;;5.78;3.22;;;;;;;;;;5053107;28;20028;-59
2021/12/02 05:41:31;;;;;;;5.67;2.93;;;;;;;;;;5051306;28;20037;-58
2021/12/02 05:43:56;;;;;;;8.45;4.55;;;;;;;;;;5052605;28;20459;-58
2021/12/02 05:46:21;;;;;;;5.57;3.03;;;;;;;;;;5051082;28;20064;-58
2021/12/02 05:48:46;;;;;;;18.10;3.23;;;;;;;;;;5052988;28;20069;-58
2021/12/02 05:51:11;;;;;;;8.67;4.03;;;;;;;;;;5050639;28;20807;-58
2021/12/02 05:53:37;;;;;;;5.80;4.28;;;;;;;;;;5052139;28;20431;-58
2021/12/02 05:56:02;;;;;;;3.17;2.30;;;;;;;;;;5051263;28;20095;-58
2021/12/02 05:58:27;;;;;;;8.37;2.93;;;;;;;;;;5052151;28;20775;-58
2021/12/02 06:00:53;;;;;;;7.40;2.60;;;;;;;;;;5051377;28;20454;-58
2021/12/02 06:03:18;;;;;;;3.60;2.70;;;;;;;;;;5052624;28;20017;-58
2021/12/02 06:05:45;;;;;;;12.05;4.55;;;;;;;;;;5052786;28;20020;-58
2021/12/02 06:08:11;;;;;;;6.28;3.97;;;;;;;;;;5054225;28;20025;-59
2021/12/02 06:10:36;;;;;;;5.28;2.90;;;;;;;;;;5052549;28;20037;-58
2021/12/02 06:13:01;;;;;;;3.38;3.17;;;;;;;;;;5052182;28;20086;-58
2021/12/02 06:15:26;;;;;;;2.63;2.42;;;;;;;;;;5050820;28;20086;-58
2021/12/02 06:17:51;;;;;;;5.83;1.70;;;;;;;;;;5052627;28;20017;-58
2021/12/02 06:20:19;;;;;;;2.42;2.30;;;;;;;;;;5050414;28;20473;-58
2021/12/02 06:22:45;;;;;;;1.90;1.80;;;;;;;;;;5050895;28;20056;-58
2021/12/02 06:27:39;;;;;;;3.92;2.05;;;;;;;;;;5052098;28;20025;-58
2021/12/02 06:30:05;;;;;;;2.17;2.08;;;;;;;;;;5052289;28;20120;-58
2021/12/02 06:32:30;;;;;;;4.80;2.85;;;;;;;;;;5051141;28;20016;-59
2021/12/02 06:34:55;;;;;;;3.20;2.90;;;;;;;;;;5050177;28;20483;-59
2021/12/02 06:37:21;;;;;;;2.40;2.20;;;;;;;;;;5051700;28;20427;-59
2021/12/02 06:39:46;;;;;;;3.65;2.10;;;;;;;;;;5050719;28;20029;-59
2021/12/02 06:42:11;;;;;;;4.15;3.50;;;;;;;;;;5051427;28;20021;-59
2021/12/02 06:44:36;;;;;;;4.00;3.13;;;;;;;;;;5050648;28;20035;-59
2021/12/02 06:47:01;;;;;;;5.20;2.95;;;;;;;;;;5051956;28;20409;-59
2021/12/02 06:49:27;;;;;;;3.88;3.58;;;;;;;;;;5049974;28;20263;-59
2021/12/02 06:51:53;;;;;;;2.95;2.65;;;;;;;;;;5051959;28;20480;-59
2021/12/02 06:54:18;;;;;;;3.55;2.60;;;;;;;;;;5049900;28;20237;-59
2021/12/02 06:56:43;;;;;;;3.97;2.72;;;;;;;;;;5051016;28;20017;-59
2021/12/02 06:59:09;;;;;;;3.88;2.88;;;;;;;;;;5051924;28;20059;-59
2021/12/02 07:01:34;;;;;;;6.50;3.97;;;;;;;;;;5049476;28;20037;-59
2021/12/02 07:04:00;;;;;;;5.32;4.82;;;;;;;;;;5051259;28;20476;-59
2021/12/02 07:06:25;;;;;;;5.50;2.50;;;;;;;;;;5046746;28;20045;-59
2021/12/02 07:08:51;;;;;;;6.28;4.00;;;;;;;;;;5042116;28;20017;-59
2021/12/02 07:11:16;;;;;;;6.65;3.70;;;;;;;;;;5038617;28;20092;-59
2021/12/02 07:13:41;;;;;;;6.10;3.63;;;;;;;;;;5039887;28;20057;-59
2021/12/02 07:16:06;;;;;;;6.28;3.40;;;;;;;;;;5038208;28;20037;-59
2021/12/02 07:18:36;;;;;;;4.63;4.28;;;;;;;;;;5039245;28;20017;-59
2021/12/02 07:21:02;;;;;;;5.50;3.70;;;;;;;;;;5038830;28;20108;-59
2021/12/02 07:23:27;;;;;;;5.55;4.40;;;;;;;;;;5041515;28;20140;-59
2021/12/02 07:25:52;;;;;;;4.40;4.00;;;;;;;;;;5039613;28;20032;-58
2021/12/02 07:28:18;;;;;;;5.20;4.57;;;;;;;;;;5040741;28;20013;-58
2021/12/02 07:30:43;;;;;;;6.88;4.65;;;;;;;;;;5046668;28;20874;-58
2021/12/02 07:33:10;;;;;;;5.40;4.05;;;;;;;;;;5050677;28;20056;-58
2021/12/02 07:35:35;;;;;;;7.63;4.80;;;;;;;;;;5049438;28;20052;-57
2021/12/02 07:38:01;;;;;;;5.22;4.70;;;;;;;;;;5050890;28;20415;-57
2021/12/02 07:40:27;;;;;;;11.55;5.40;;;;;;;;;;5043151;28;20149;-58
2021/12/02 07:42:52;;;;;;;6.65;6.07;;;;;;;;;;5040491;28;20013;-59
2021/12/02 07:45:19;;;;;;;4.72;4.40;;;;;;;;;;5039194;28;20103;-59
2021/12/02 07:47:44;;;;;;;4.28;3.95;;;;;;;;;;5038990;28;20106;-58
2021/12/02 07:50:14;;;;;;;5.05;3.75;;;;;;;;;;5039582;28;20501;-59
2021/12/02 07:52:41;;;;;;;3.88;3.17;;;;;;;;;;5040982;28;20024;-58
2021/12/02 07:55:07;;;;;;;3.75;3.45;;;;;;;;;;5037554;28;20040;-59
2021/12/02 07:57:37;;;;;;;4.45;4.05;;;;;;;;;;5040240;28;20361;-59
2021/12/02 08:00:03;;;;;;;5.85;3.10;;;;;;;;;;5039967;28;20025;-58
2021/12/02 08:02:32;;;;;;;4.47;4.07;;;;;;;;;;5038968;28;20029;-59
2021/12/02 08:04:58;;;;;;;4.40;4.10;;;;;;;;;;5038433;28;20680;-58
2021/12/02 08:07:23;;;;;;;3.92;3.50;;;;;;;;;;5040918;28;20021;-59
2021/12/02 08:09:48;;;;;;;4.25;3.78;;;;;;;;;;5037492;28;20034;-58
2021/12/02 08:12:13;;;;;;;4.03;3.78;;;;;;;;;;5040066;28;20075;-59
2021/12/02 08:14:38;;;;;;;6.33;4.13;;;;;;;;;;5039431;28;20042;-59
2021/12/02 08:17:04;;;;;;;4.40;4.00;;;;;;;;;;5042659;28;20016;-59
2021/12/02 08:19:29;;;;;;;7.93;6.30;;;;;;;;;;5043153;28;20447;-59
2021/12/02 08:21:54;;;;;;;8.10;5.20;;;;;;;;;;5043894;28;20057;-58
2021/12/02 08:24:22;;;;;;;5.38;4.85;;;;;;;;;;5044293;28;20071;-58
2021/12/02 08:26:47;;;;;;;6.03;5.53;;;;;;;;;;5045233;28;20013;-58
2021/12/02 08:29:13;;;;;;;6.90;4.93;;;;;;;;;;5052939;28;20062;-58
2021/12/02 08:31:38;;;;;;;5.67;5.10;;;;;;;;;;5054671;28;20463;-58
2021/12/02 08:34:03;;;;;;;7.17;6.47;;;;;;;;;;5054349;28;20427;-59
2021/12/02 08:36:40;;;;;;;8.13;5.13;;;;;;;;;;5052238;28;21013;-58
2021/12/02 08:39:07;;;;;;;8.32;5.30;;;;;;;;;;5054279;28;20457;-59
2021/12/02 08:41:32;;;;;;;8.70;5.63;;;;;;;;;;5045144;28;20493;-59
2021/12/02 08:43:57;;;;;;;7.57;5.10;;;;;;;;;;5044597;28;20023;-59
2021/12/02 08:46:25;;;;;;;5.22;4.63;;;;;;;;;;5051824;28;20478;-58
2021/12/02 08:48:52;;;;;;;6.30;4.95;;;;;;;;;;5053689;28;20511;-58
2021/12/02 08:51:17;;;;;;;8.70;5.18;;;;;;;;;;5052028;28;20029;-59
2021/12/02 08:53:42;;;;;;;14.05;6.32;;;;;;;;;;5054031;28;20029;-59
2021/12/02 08:56:07;;;;;;;6.25;4.75;;;;;;;;;;5051362;28;20098;-59
2021/12/02 08:58:35;;;;;;;5.60;5.10;;;;;;;;;;5053498;28;20124;-59
2021/12/02 09:01:01;;;;;;;6.63;5.97;;;;;;;;;;5052484;28;20036;-59
2021/12/02 13:50:07;;;;;;;2.80;2.63;;;;;;;;;;4354317;28;20132;-59
2021/12/02 13:52:38;;;;;;;2.65;2.47;;;;;;;;;;5053110;28;20519;-59
2021/12/02 13:55:09;;;;;;;4.18;2.97;;;;;;;;;;5051554;28;20029;-59
2021/12/02 13:57:43;;;;;;;2.70;2.58;;;;;;;;;;5051914;28;20500;-59
2021/12/02 14:00:16;;;;;;;3.58;3.10;;;;;;;;;;5046008;28;20057;-59
2021/12/02 14:02:43;;;;;;;2.45;2.30;;;;;;;;;;5051367;28;20027;-59
2021/12/02 14:05:09;;;;;;;9.07;2.70;;;;;;;;;;5051011;28;20033;-59
2021/12/02 14:07:36;;;;;;;4.30;2.72;;;;;;;;;;5051962;28;20013;-59
2021/12/02 14:10:03;;;;;;;7.00;3.00;;;;;;;;;;5051127;28;20051;-59
2021/12/02 14:12:47;;;;;;;2.60;2.28;;;;;;;;;;5051577;28;20383;-59
2021/12/02 14:15:17;;;;;;;3.10;2.80;;;;;;;;;;5049824;28;20120;-59
2021/12/02 14:17:47;;;;;;;3.15;2.63;;;;;;;;;;5051509;28;20029;-59
2021/12/02 14:20:13;;;;;;;6.90;3.70;;;;;;;;;;5050523;28;20392;-59
2021/12/02 14:22:40;;;;;;;3.47;2.83;;;;;;;;;;5052057;28;20017;-59
2021/12/02 14:25:06;;;;;;;7.53;3.22;;;;;;;;;;5052382;28;20087;-58
2021/12/02 14:27:32;;;;;;;2.58;2.28;;;;;;;;;;5059109;28;20025;-58
2021/12/02 14:30:11;;;;;;;2.72;2.47;;;;;;;;;;5052065;28;20125;-58
2021/12/02 14:32:36;;;;;;;2.65;2.47;;;;;;;;;;5046041;28;20025;-58
2021/12/02 14:35:10;;;;;;;3.30;2.88;;;;;;;;;;5036324;28;20037;-58
2021/12/02 14:37:35;;;;;;;2.67;2.58;;;;;;;;;;5048651;28;20107;-58
2021/12/02 14:40:00;;;;;;;2.47;2.38;;;;;;;;;;5056279;28;20140;-58
2021/12/02 14:42:25;;;;;;;2.43;2.30;;;;;;;;;;5042305;28;20025;-58
2021/12/02 14:44:51;;;;;;;2.95;2.40;;;;;;;;;;5037193;28;20448;-58
2021/12/02 14:47:16;;;;;;;2.30;2.20;;;;;;;;;;5066985;28;20384;-58
2021/12/02 14:49:44;;;;;;;2.10;2.00;;;;;;;;;;5056319;28;20135;-58
2021/12/02 14:52:13;;;;;;;6.45;3.88;;;;;;;;;;5050831;28;20096;-58
2021/12/02 14:54:41;;;;;;;7.35;2.75;;;;;;;;;;5059336;28;20039;-58
2021/12/02 14:57:27;;;;;;;4.25;2.95;;;;;;;;;;5052864;28;20162;-57
2021/12/02 15:00:04;;;;;;;3.30;2.70;;;;;;;;;;5049797;28;20055;-57
2021/12/02 15:02:38;;;;;;;3.00;2.75;;;;;;;;;;5049987;28;20108;-57
2021/12/02 15:05:10;;;;;;;5.50;3.35;;;;;;;;;;5069728;28;20056;-57
2021/12/02 15:07:44;;;;;;;4.47;3.83;;;;;;;;;;5071088;28;20025;-58
2021/12/02 15:10:26;;;;;;;2.90;2.70;;;;;;;;;;5069935;28;20032;-57
2021/12/02 15:13:02;;;;;;;6.93;2.90;;;;;;;;;;5070940;28;20021;-58
2021/12/02 15:15:28;;;;;;;3.42;3.13;;;;;;;;;;5069193;28;20617;-57
2021/12/02 15:17:55;;;;;;;3.40;3.20;;;;;;;;;;5071344;28;20017;-57
2021/12/02 15:20:23;;;;;;;3.47;3.17;;;;;;;;;;5069351;28;20104;-57
2021/12/02 15:22:50;;;;;;;4.00;3.42;;;;;;;;;;5071020;28;20040;-57
2021/12/02 15:25:18;;;;;;;5.45;3.53;;;;;;;;;;5052073;28;20033;-57
2021/12/02 15:28:04;;;;;;;7.75;4.18;;;;;;;;;;5050705;28;20491;-58
2021/12/02 15:30:32;;;;;;;4.85;4.30;;;;;;;;;;5049233;28;20070;-58
2021/12/02 15:32:57;;;;;;;4.45;4.05;;;;;;;;;;5051090;28;20020;-57
2021/12/02 15:35:22;;;;;;;5.07;4.67;;;;;;;;;;5048770;28;20033;-57
2021/12/02 15:37:48;;;;;;;4.97;4.50;;;;;;;;;;5051037;28;20499;-57
2021/12/02 15:40:13;;;;;;;5.15;4.75;;;;;;;;;;5049257;28;20194;-57
2021/12/02 15:42:38;;;;;;;6.70;6.13;;;;;;;;;;5050398;28;20020;-57
2021/12/02 15:45:04;;;;;;;6.55;5.82;;;;;;;;;;5049040;28;20050;-57
2021/12/02 15:47:29;;;;;;;6.07;5.50;;;;;;;;;;5049908;28;20059;-58
2021/12/02 15:50:02;;;;;;;6.95;6.25;;;;;;;;;;5048873;28;20127;-57
2021/12/02 15:52:31;;;;;;;6.57;6.05;;;;;;;;;;5050944;28;20025;-58
2021/12/02 15:54:56;;;;;;;9.95;6.53;;;;;;;;;;5049344;28;20033;-57
2021/12/02 15:57:21;;;;;;;6.80;6.20;;;;;;;;;;5043757;28;20025;-58
2021/12/02 15:59:47;;;;;;;6.47;5.90;;;;;;;;;;5038521;28;20037;-57
2021/12/02 16:02:26;;;;;;;9.50;6.93;;;;;;;;;;5036607;28;20013;-58
2021/12/02 16:04:56;;;;;;;10.68;7.30;;;;;;;;;;5029333;28;20057;-57
2021/12/02 16:07:37;;;;;;;6.32;5.70;;;;;;;;;;5030975;28;20444;-58
2021/12/02 16:10:20;;;;;;;7.28;6.57;;;;;;;;;;5029709;28;20037;-57
2021/12/02 16:12:45;;;;;;;7.32;6.53;;;;;;;;;;5030430;28;20030;-58
2021/12/02 16:15:16;;;;;;;10.73;6.63;;;;;;;;;;5041011;28;20195;-57
2021/12/02 16:17:41;;;;;;;9.70;6.97;;;;;;;;;;5039586;28;20459;-58
2021/12/02 16:20:09;;;;;;;10.02;7.80;;;;;;;;;;5028946;28;20038;-58
2021/12/02 16:22:34;;;;;;;9.15;8.35;;;;;;;;;;5035892;28;20040;-57
2021/12/02 16:25:00;;;;;;;13.23;10.02;;;;;;;;;;5039021;28;20056;-58
2021/12/02 16:27:26;;;;;;;9.13;7.13;;;;;;;;;;5038775;28;20025;-57
2021/12/02 16:29:52;;;;;;;7.90;6.72;;;;;;;;;;5037642;28;20037;-58
2021/12/02 16:32:18;;;;;;;8.43;6.20;;;;;;;;;;5039782;28;20527;-58
2021/12/02 16:34:44;;;;;;;7.28;6.68;;;;;;;;;;5032446;28;20065;-58
2021/12/02 16:37:09;;;;;;;6.45;5.85;;;;;;;;;;5040321;28;20441;-58
2021/12/02 16:39:34;;;;;;;6.32;5.35;;;;;;;;;;5035078;28;20433;-58
2021/12/02 16:41:59;;;;;;;8.45;5.63;;;;;;;;;;5041680;28;20063;-58
2021/12/02 16:44:25;;;;;;;7.30;6.30;;;;;;;;;;5041873;28;20507;-58
2021/12/02 16:46:50;;;;;;;8.17;5.83;;;;;;;;;;5043888;28;20023;-58
2021/12/02 16:49:17;;;;;;;9.43;6.00;;;;;;;;;;5042375;28;20490;-58
2021/12/02 16:51:42;;;;;;;6.45;5.75;;;;;;;;;;5041995;28;20436;-58
2021/12/02 16:54:07;;;;;;;10.60;7.68;;;;;;;;;;5049371;28;20048;-58
2021/12/02 16:56:33;;;;;;;9.27;7.60;;;;;;;;;;5044697;28;20049;-58
2021/12/02 16:58:58;;;;;;;6.20;5.68;;;;;;;;;;5048290;28;20396;-57
2021/12/02 17:01:24;;;;;;;9.70;7.47;;;;;;;;;;5040763;28;20514;-58
2021/12/02 17:03:52;;;;;;;8.48;7.55;;;;;;;;;;5040350;28;20059;-58
2021/12/02 17:06:17;;;;;;;12.27;7.38;;;;;;;;;;5037582;28;20550;-58
2021/12/02 17:08:42;;;;;;;14.30;6.88;;;;;;;;;;5040483;28;20018;-58
2021/12/02 17:11:08;;;;;;;8.10;7.32;;;;;;;;;;5038529;28;20041;-57
2021/12/02 17:13:33;;;;;;;7.53;6.40;;;;;;;;;;5039494;28;20044;-58
2021/12/02 17:15:58;;;;;;;7.83;7.03;;;;;;;;;;5038346;28;21049;-57
2021/12/02 17:18:23;;;;;;;7.27;6.57;;;;;;;;;;5041810;28;20440;-58
2021/12/02 17:20:49;;;;;;;9.85;7.00;;;;;;;;;;5041546;28;20490;-57
2021/12/02 17:23:18;;;;;;;10.55;7.30;;;;;;;;;;5041401;28;20022;-58
2021/12/02 17:25:43;;;;;;;10.68;7.32;;;;;;;;;;5041400;28;20623;-58
2021/12/02 17:28:08;;;;;;;6.50;6.00;;;;;;;;;;5032779;28;20096;-58
2021/12/02 17:30:35;;;;;;;7.10;6.40;;;;;;;;;;5030962;28;20037;-58
2021/12/02 17:33:00;;;;;;;7.93;5.88;;;;;;;;;;5032510;28;20022;-57
2021/12/02 17:35:25;;;;;;;6.25;5.70;;;;;;;;;;5036270;28;20045;-57
2021/12/02 17:37:51;;;;;;;6.68;5.57;;;;;;;;;;5039782;28;20021;-58
2021/12/02 17:40:36;;;;;;;9.10;5.60;;;;;;;;;;5042607;28;20136;-57
2021/12/02 17:43:04;;;;;;;6.10;5.57;;;;;;;;;;5051883;28;20562;-58
2021/12/02 17:45:29;;;;;;;6.80;6.15;;;;;;;;;;5039374;28;20037;-58
2021/12/02 17:47:55;;;;;;;8.25;6.47;;;;;;;;;;5039680;28;20027;-58
2021/12/02 17:50:21;;;;;;;5.93;5.45;;;;;;;;;;5050218;28;20272;-57
2021/12/02 17:52:46;;;;;;;7.28;6.32;;;;;;;;;;5051186;28;20009;-58
2021/12/02 17:55:11;;;;;;;7.27;5.57;;;;;;;;;;5039922;28;20512;-58
2021/12/02 17:57:37;;;;;;;6.28;5.68;;;;;;;;;;5041321;28;20521;-58
2021/12/02 18:00:03;;;;;;;6.15;5.55;;;;;;;;;;5041265;28;20068;-57
2021/12/02 18:02:29;;;;;;;10.40;5.55;;;;;;;;;;5038877;28;20092;-57
2021/12/02 18:04:54;;;;;;;6.25;5.43;;;;;;;;;;5039518;28;20191;-58
2021/12/02 18:07:19;;;;;;;6.20;4.88;;;;;;;;;;5039298;28;20031;-58
2021/12/02 18:09:45;;;;;;;6.97;6.28;;;;;;;;;;5037618;28;20032;-57
2021/12/02 18:12:10;;;;;;;7.95;6.07;;;;;;;;;;5038197;28;20033;-58
2021/12/02 18:14:35;;;;;;;6.43;5.82;;;;;;;;;;5037778;28;20037;-58
2021/12/02 18:17:01;;;;;;;8.67;7.13;;;;;;;;;;5039569;28;20044;-58
2021/12/02 18:19:26;;;;;;;9.32;6.95;;;;;;;;;;5040266;28;20440;-58
2021/12/02 18:21:52;;;;;;;7.85;6.85;;;;;;;;;;5039245;28;20096;-58
2021/12/02 18:24:18;;;;;;;9.77;8.10;;;;;;;;;;5037831;28;20029;-57
2021/12/02 18:26:43;;;;;;;8.43;7.35;;;;;;;;;;5041290;28;20028;-58
2021/12/02 18:29:08;;;;;;;8.70;7.63;;;;;;;;;;5037964;28;20022;-57
2021/12/02 18:31:33;;;;;;;9.32;7.97;;;;;;;;;;5039350;28;20446;-57
2021/12/02 18:33:59;;;;;;;10.17;8.80;;;;;;;;;;5037574;28;20017;-57
2021/12/02 18:36:25;;;;;;;10.93;9.82;;;;;;;;;;5037569;28;20502;-58
2021/12/02 18:38:50;;;;;;;9.60;8.55;;;;;;;;;;5040735;28;20105;-58
2021/12/02 18:41:15;;;;;;;12.57;9.93;;;;;;;;;;5037927;28;20576;-58
2021/12/02 18:43:41;;;;;;;11.00;8.63;;;;;;;;;;5041853;28;20013;-58
2021/12/02 18:46:06;;;;;;;10.32;9.27;;;;;;;;;;5042744;28;20049;-57
2021/12/02 18:48:32;;;;;;;10.63;8.85;;;;;;;;;;5037245;28;20144;-58
2021/12/02 18:50:57;;;;;;;12.20;10.98;;;;;;;;;;5030313;28;20033;-57
2021/12/02 18:53:23;;;;;;;13.00;10.27;;;;;;;;;;5036451;28;20021;-58
2021/12/02 18:55:49;;;;;;;15.02;12.02;;;;;;;;;;5049403;28;20381;-57
2021/12/02 18:58:14;;;;;;;13.80;11.15;;;;;;;;;;5043856;28;20029;-58
2021/12/02 19:00:39;;;;;;;17.83;11.70;;;;;;;;;;5028557;28;20489;-57
2021/12/02 19:03:04;;;;;;;11.95;10.70;;;;;;;;;;5029034;28;20032;-57
2021/12/02 19:05:35;;;;;;;13.20;10.67;;;;;;;;;;5029549;28;20042;-57
2021/12/02 19:08:21;;;;;;;9.68;7.60;;;;;;;;;;5030425;28;20440;-57
2021/12/02 19:27:11;;;;;;;17.15;10.15;;;;;;;;;;5031033;28;20052;-57
2021/12/02 19:29:36;;;;;;;12.65;9.80;;;;;;;;;;5027999;28;20467;-57
2021/12/02 19:32:01;;;;;;;21.88;14.23;;;;;;;;;;5032634;28;20029;-58
2021/12/02 19:34:27;;;;;;;13.65;12.20;;;;;;;;;;5028956;28;20014;-57
2021/12/02 19:36:52;;;;;;;18.50;12.70;;;;;;;;;;5029892;28;20408;-57
2021/12/02 19:39:17;;;;;;;13.27;10.95;;;;;;;;;;5028675;28;20018;-57
2021/12/02 19:41:42;;;;;;;19.42;13.95;;;;;;;;;;5034268;28;20041;-57
2021/12/02 19:44:07;;;;;;;14.93;11.87;;;;;;;;;;5039161;28;20021;-59
2021/12/02 19:46:35;;;;;;;18.13;14.40;;;;;;;;;;5047785;28;20448;-57
2021/12/02 19:49:01;;;;;;;19.90;16.25;;;;;;;;;;5035194;28;20480;-57
2021/12/02 19:51:26;;;;;;;21.50;14.38;;;;;;;;;;5040213;28;20507;-57
2021/12/02 19:53:51;;;;;;;18.17;13.98;;;;;;;;;;5033036;28;20217;-57
2021/12/02 19:56:16;;;;;;;20.10;15.18;;;;;;;;;;5028701;28;20037;-58